sensor_id;sensor_type;location;lat;lon;timestamp;P1;durP1;ratioP1;P2;durP2;ratioP2
72413;SDS011;60995;52.154;4.498;2023-06-14T00:00:34;14.82;;;4.47;;
72413;SDS011;60995;52.154;4.498;2023-06-14T00:02:51;9.40;;;4.20;;
72413;SDS011;60995;52.154;4.498;2023-06-14T00:05:15;13.52;;;3.97;;
72413;SDS011;60995;52.154;4.498;2023-06-14T00:07:35;11.52;;;4.03;;
72413;SDS011;60995;52.154;4.498;2023-06-14T00:09:59;13.15;;;4.50;;
72413;SDS011;60995;52.154;4.498;2023-06-14T00:12:15;10.93;;;4.28;;
72413;SDS011;60995;52.154;4.498;2023-06-14T00:14:32;11.07;;;4.28;;
72413;SDS011;60995;52.154;4.498;2023-06-14T00:16:48;8.85;;;3.70;;
72413;SDS011;60995;52.154;4.498;2023-06-14T00:19:04;13.93;;;4.13;;
72413;SDS011;60995;52.154;4.498;2023-06-14T00:21:20;11.25;;;4.30;;
72413;SDS011;60995;52.154;4.498;2023-06-14T00:23:37;10.48;;;4.10;;
72413;SDS011;60995;52.154;4.498;2023-06-14T00:25:54;11.65;;;4.45;;
72413;SDS011;60995;52.154;4.498;2023-06-14T00:28:10;11.40;;;4.03;;
72413;SDS011;60995;52.154;4.498;2023-06-14T00:30:26;12.85;;;4.05;;
72413;SDS011;60995;52.154;4.498;2023-06-14T00:32:46;13.07;;;3.92;;
72413;SDS011;60995;52.154;4.498;2023-06-14T00:35:03;10.60;;;3.97;;
72413;SDS011;60995;52.154;4.498;2023-06-14T00:37:20;12.05;;;3.90;;
72413;SDS011;60995;52.154;4.498;2023-06-14T00:39:37;10.70;;;4.00;;
72413;SDS011;60995;52.154;4.498;2023-06-14T00:41:54;11.38;;;3.80;;
72413;SDS011;60995;52.154;4.498;2023-06-14T00:44:10;10.68;;;4.35;;
72413;SDS011;60995;52.154;4.498;2023-06-14T00:46:31;13.95;;;4.22;;
72413;SDS011;60995;52.154;4.498;2023-06-14T00:48:48;11.10;;;3.53;;
72413;SDS011;60995;52.154;4.498;2023-06-14T00:51:04;9.30;;;3.25;;
72413;SDS011;60995;52.154;4.498;2023-06-14T00:53:21;14.40;;;3.50;;
72413;SDS011;60995;52.154;4.498;2023-06-14T00:55:38;10.43;;;2.88;;
72413;SDS011;60995;52.154;4.498;2023-06-14T00:57:55;11.07;;;2.97;;
72413;SDS011;60995;52.154;4.498;2023-06-14T01:00:12;15.30;;;3.53;;
72413;SDS011;60995;52.154;4.498;2023-06-14T01:02:30;10.90;;;3.28;;
72413;SDS011;60995;52.154;4.498;2023-06-14T01:04:47;10.50;;;3.25;;
72413;SDS011;60995;52.154;4.498;2023-06-14T01:12:48;7.88;;;2.92;;
72413;SDS011;60995;52.154;4.498;2023-06-14T01:15:10;9.93;;;3.42;;
72413;SDS011;60995;52.154;4.498;2023-06-14T01:17:29;10.27;;;3.35;;
72413;SDS011;60995;52.154;4.498;2023-06-14T01:19:47;12.68;;;3.95;;
72413;SDS011;60995;52.154;4.498;2023-06-14T01:22:04;8.63;;;2.90;;
72413;SDS011;60995;52.154;4.498;2023-06-14T01:24:20;9.00;;;3.13;;
72413;SDS011;60995;52.154;4.498;2023-06-14T01:26:41;7.97;;;3.20;;
72413;SDS011;60995;52.154;4.498;2023-06-14T01:29:01;9.27;;;3.15;;
72413;SDS011;60995;52.154;4.498;2023-06-14T01:31:19;10.27;;;3.25;;
72413;SDS011;60995;52.154;4.498;2023-06-14T01:33:37;10.07;;;3.78;;
72413;SDS011;60995;52.154;4.498;2023-06-14T01:35:54;9.00;;;2.90;;
72413;SDS011;60995;52.154;4.498;2023-06-14T01:38:15;9.68;;;3.25;;
72413;SDS011;60995;52.154;4.498;2023-06-14T01:40:39;7.72;;;3.20;;
72413;SDS011;60995;52.154;4.498;2023-06-14T01:42:58;8.85;;;3.15;;
72413;SDS011;60995;52.154;4.498;2023-06-14T01:45:15;9.55;;;3.42;;
72413;SDS011;60995;52.154;4.498;2023-06-14T01:47:34;9.35;;;3.35;;
72413;SDS011;60995;52.154;4.498;2023-06-14T01:49:51;9.93;;;2.97;;
72413;SDS011;60995;52.154;4.498;2023-06-14T01:52:08;9.25;;;2.83;;
72413;SDS011;60995;52.154;4.498;2023-06-14T01:54:25;11.93;;;3.22;;
72413;SDS011;60995;52.154;4.498;2023-06-14T01:56:43;7.90;;;3.55;;
72413;SDS011;60995;52.154;4.498;2023-06-14T01:58:59;10.48;;;3.33;;
72413;SDS011;60995;52.154;4.498;2023-06-14T02:01:15;11.75;;;3.22;;
72413;SDS011;60995;52.154;4.498;2023-06-14T02:03:32;11.40;;;3.20;;
72413;SDS011;60995;52.154;4.498;2023-06-14T02:05:48;10.07;;;3.38;;
72413;SDS011;60995;52.154;4.498;2023-06-14T02:08:05;8.57;;;3.10;;
72413;SDS011;60995;52.154;4.498;2023-06-14T02:10:22;8.63;;;3.03;;
72413;SDS011;60995;52.154;4.498;2023-06-14T02:12:38;13.15;;;3.38;;
72413;SDS011;60995;52.154;4.498;2023-06-14T02:14:54;12.05;;;3.78;;
72413;SDS011;60995;52.154;4.498;2023-06-14T02:17:12;10.90;;;3.35;;
72413;SDS011;60995;52.154;4.498;2023-06-14T02:19:28;11.55;;;3.40;;
72413;SDS011;60995;52.154;4.498;2023-06-14T02:21:44;9.38;;;3.33;;
72413;SDS011;60995;52.154;4.498;2023-06-14T02:24:01;10.07;;;3.38;;
72413;SDS011;60995;52.154;4.498;2023-06-14T02:26:18;8.75;;;2.72;;
72413;SDS011;60995;52.154;4.498;2023-06-14T02:28:34;8.65;;;3.30;;
72413;SDS011;60995;52.154;4.498;2023-06-14T02:30:51;7.20;;;3.10;;
72413;SDS011;60995;52.154;4.498;2023-06-14T02:33:07;8.02;;;2.92;;
72413;SDS011;60995;52.154;4.498;2023-06-14T02:35:24;8.35;;;2.75;;
72413;SDS011;60995;52.154;4.498;2023-06-14T02:37:42;8.63;;;2.88;;
72413;SDS011;60995;52.154;4.498;2023-06-14T02:39:58;12.90;;;3.20;;
72413;SDS011;60995;52.154;4.498;2023-06-14T02:42:14;11.52;;;3.00;;
72413;SDS011;60995;52.154;4.498;2023-06-14T02:44:31;11.50;;;4.10;;
72413;SDS011;60995;52.154;4.498;2023-06-14T02:46:48;9.88;;;3.20;;
72413;SDS011;60995;52.154;4.498;2023-06-14T02:49:04;11.35;;;3.65;;
72413;SDS011;60995;52.154;4.498;2023-06-14T02:51:20;9.90;;;2.92;;
72413;SDS011;60995;52.154;4.498;2023-06-14T02:53:37;14.88;;;3.15;;
72413;SDS011;60995;52.154;4.498;2023-06-14T02:55:53;10.93;;;3.55;;
72413;SDS011;60995;52.154;4.498;2023-06-14T02:58:11;15.23;;;3.60;;
72413;SDS011;60995;52.154;4.498;2023-06-14T03:00:28;11.05;;;3.20;;
72413;SDS011;60995;52.154;4.498;2023-06-14T03:02:46;10.95;;;3.30;;
72413;SDS011;60995;52.154;4.498;2023-06-14T03:05:02;12.93;;;3.38;;
72413;SDS011;60995;52.154;4.498;2023-06-14T03:07:20;11.25;;;3.05;;
72413;SDS011;60995;52.154;4.498;2023-06-14T03:09:36;11.07;;;3.40;;
72413;SDS011;60995;52.154;4.498;2023-06-14T03:11:54;8.02;;;3.03;;
72413;SDS011;60995;52.154;4.498;2023-06-14T03:14:10;7.70;;;3.30;;
72413;SDS011;60995;52.154;4.498;2023-06-14T03:16:27;12.20;;;3.03;;
72413;SDS011;60995;52.154;4.498;2023-06-14T03:18:45;9.30;;;3.15;;
72413;SDS011;60995;52.154;4.498;2023-06-14T03:21:01;11.35;;;3.05;;
72413;SDS011;60995;52.154;4.498;2023-06-14T03:23:19;9.82;;;2.92;;
72413;SDS011;60995;52.154;4.498;2023-06-14T03:25:35;8.40;;;2.78;;
72413;SDS011;60995;52.154;4.498;2023-06-14T03:27:54;8.57;;;3.10;;
72413;SDS011;60995;52.154;4.498;2023-06-14T03:30:10;10.80;;;3.22;;
72413;SDS011;60995;52.154;4.498;2023-06-14T03:32:27;9.30;;;3.08;;
72413;SDS011;60995;52.154;4.498;2023-06-14T03:34:43;6.72;;;2.80;;
72413;SDS011;60995;52.154;4.498;2023-06-14T03:37:00;11.85;;;4.07;;
72413;SDS011;60995;52.154;4.498;2023-06-14T03:39:17;10.32;;;2.85;;
72413;SDS011;60995;52.154;4.498;2023-06-14T03:41:33;14.27;;;2.92;;
72413;SDS011;60995;52.154;4.498;2023-06-14T03:43:50;9.52;;;2.83;;
72413;SDS011;60995;52.154;4.498;2023-06-14T03:46:06;15.43;;;3.53;;
72413;SDS011;60995;52.154;4.498;2023-06-14T03:48:23;8.52;;;3.00;;
72413;SDS011;60995;52.154;4.498;2023-06-14T03:50:39;10.25;;;3.15;;
72413;SDS011;60995;52.154;4.498;2023-06-14T03:52:56;12.70;;;3.05;;
72413;SDS011;60995;52.154;4.498;2023-06-14T03:55:12;9.93;;;2.95;;
72413;SDS011;60995;52.154;4.498;2023-06-14T03:57:29;11.57;;;3.33;;
72413;SDS011;60995;52.154;4.498;2023-06-14T03:59:46;9.65;;;2.95;;
72413;SDS011;60995;52.154;4.498;2023-06-14T04:02:02;12.25;;;3.00;;
72413;SDS011;60995;52.154;4.498;2023-06-14T04:04:19;8.95;;;2.78;;
72413;SDS011;60995;52.154;4.498;2023-06-14T04:06:37;10.57;;;2.95;;
72413;SDS011;60995;52.154;4.498;2023-06-14T04:08:53;12.50;;;2.83;;
72413;SDS011;60995;52.154;4.498;2023-06-14T04:11:09;12.10;;;3.25;;
72413;SDS011;60995;52.154;4.498;2023-06-14T04:13:26;9.15;;;2.90;;
72413;SDS011;60995;52.154;4.498;2023-06-14T04:15:42;11.88;;;2.97;;
72413;SDS011;60995;52.154;4.498;2023-06-14T04:18:01;8.95;;;3.17;;
72413;SDS011;60995;52.154;4.498;2023-06-14T04:20:17;11.93;;;3.45;;
72413;SDS011;60995;52.154;4.498;2023-06-14T04:22:34;10.98;;;2.95;;
72413;SDS011;60995;52.154;4.498;2023-06-14T04:24:50;9.23;;;3.00;;
72413;SDS011;60995;52.154;4.498;2023-06-14T04:27:08;16.25;;;3.15;;
72413;SDS011;60995;52.154;4.498;2023-06-14T04:29:24;13.60;;;2.95;;
72413;SDS011;60995;52.154;4.498;2023-06-14T04:31:42;13.02;;;2.72;;
72413;SDS011;60995;52.154;4.498;2023-06-14T04:34:00;10.50;;;3.00;;
72413;SDS011;60995;52.154;4.498;2023-06-14T04:36:16;8.63;;;2.65;;
72413;SDS011;60995;52.154;4.498;2023-06-14T04:38:33;10.02;;;3.00;;
72413;SDS011;60995;52.154;4.498;2023-06-14T04:40:50;7.95;;;2.72;;
72413;SDS011;60995;52.154;4.498;2023-06-14T04:43:08;10.57;;;2.70;;
72413;SDS011;60995;52.154;4.498;2023-06-14T04:45:27;8.45;;;2.60;;
72413;SDS011;60995;52.154;4.498;2023-06-14T04:47:47;15.23;;;6.00;;
72413;SDS011;60995;52.154;4.498;2023-06-14T04:50:03;8.82;;;3.20;;
72413;SDS011;60995;52.154;4.498;2023-06-14T04:52:20;16.17;;;2.60;;
72413;SDS011;60995;52.154;4.498;2023-06-14T04:54:36;11.68;;;2.80;;
72413;SDS011;60995;52.154;4.498;2023-06-14T04:56:53;15.07;;;3.03;;
72413;SDS011;60995;52.154;4.498;2023-06-14T04:59:10;11.10;;;2.78;;
72413;SDS011;60995;52.154;4.498;2023-06-14T05:01:27;9.43;;;2.85;;
72413;SDS011;60995;52.154;4.498;2023-06-14T05:03:43;8.50;;;2.80;;
72413;SDS011;60995;52.154;4.498;2023-06-14T05:06:01;10.95;;;2.60;;
72413;SDS011;60995;52.154;4.498;2023-06-14T05:08:17;9.82;;;2.60;;
72413;SDS011;60995;52.154;4.498;2023-06-14T05:10:33;12.93;;;3.30;;
72413;SDS011;60995;52.154;4.498;2023-06-14T05:12:51;12.13;;;2.60;;
72413;SDS011;60995;52.154;4.498;2023-06-14T05:15:08;9.43;;;3.00;;
72413;SDS011;60995;52.154;4.498;2023-06-14T05:17:25;7.60;;;2.75;;
72413;SDS011;60995;52.154;4.498;2023-06-14T05:19:43;6.38;;;3.00;;
72413;SDS011;60995;52.154;4.498;2023-06-14T05:22:00;8.48;;;2.70;;
72413;SDS011;60995;52.154;4.498;2023-06-14T05:24:18;11.43;;;3.00;;
72413;SDS011;60995;52.154;4.498;2023-06-14T05:26:35;8.40;;;3.10;;
72413;SDS011;60995;52.154;4.498;2023-06-14T05:28:52;7.05;;;2.40;;
72413;SDS011;60995;52.154;4.498;2023-06-14T05:31:08;11.00;;;2.75;;
72413;SDS011;60995;52.154;4.498;2023-06-14T05:33:24;9.18;;;2.40;;
72413;SDS011;60995;52.154;4.498;2023-06-14T05:35:41;11.20;;;2.67;;
72413;SDS011;60995;52.154;4.498;2023-06-14T05:37:57;8.88;;;2.53;;
72413;SDS011;60995;52.154;4.498;2023-06-14T05:40:13;9.30;;;2.70;;
72413;SDS011;60995;52.154;4.498;2023-06-14T05:42:30;10.15;;;2.75;;
72413;SDS011;60995;52.154;4.498;2023-06-14T05:44:46;6.80;;;2.40;;
72413;SDS011;60995;52.154;4.498;2023-06-14T05:47:02;9.88;;;2.92;;
72413;SDS011;60995;52.154;4.498;2023-06-14T05:49:19;10.20;;;2.47;;
72413;SDS011;60995;52.154;4.498;2023-06-14T05:51:35;9.50;;;2.88;;
72413;SDS011;60995;52.154;4.498;2023-06-14T05:53:54;9.70;;;2.70;;
72413;SDS011;60995;52.154;4.498;2023-06-14T05:56:10;9.20;;;2.53;;
72413;SDS011;60995;52.154;4.498;2023-06-14T05:58:26;8.25;;;2.67;;
72413;SDS011;60995;52.154;4.498;2023-06-14T06:00:43;9.23;;;2.53;;
72413;SDS011;60995;52.154;4.498;2023-06-14T06:02:59;7.43;;;2.60;;
72413;SDS011;60995;52.154;4.498;2023-06-14T06:05:16;8.82;;;2.58;;
72413;SDS011;60995;52.154;4.498;2023-06-14T06:07:33;10.43;;;2.67;;
72413;SDS011;60995;52.154;4.498;2023-06-14T06:10:01;6.88;;;2.40;;
72413;SDS011;60995;52.154;4.498;2023-06-14T06:12:18;9.68;;;2.75;;
72413;SDS011;60995;52.154;4.498;2023-06-14T06:14:34;6.90;;;2.53;;
72413;SDS011;60995;52.154;4.498;2023-06-14T06:16:50;8.10;;;2.42;;
72413;SDS011;60995;52.154;4.498;2023-06-14T06:19:08;6.88;;;2.50;;
72413;SDS011;60995;52.154;4.498;2023-06-14T06:21:24;8.30;;;2.60;;
72413;SDS011;60995;52.154;4.498;2023-06-14T06:23:41;7.13;;;2.80;;
72413;SDS011;60995;52.154;4.498;2023-06-14T06:25:57;10.05;;;2.60;;
72413;SDS011;60995;52.154;4.498;2023-06-14T06:28:13;11.15;;;2.88;;
72413;SDS011;60995;52.154;4.498;2023-06-14T06:30:30;8.98;;;2.75;;
72413;SDS011;60995;52.154;4.498;2023-06-14T06:32:46;12.57;;;2.83;;
72413;SDS011;60995;52.154;4.498;2023-06-14T06:35:03;6.47;;;2.80;;
72413;SDS011;60995;52.154;4.498;2023-06-14T06:37:22;8.32;;;3.25;;
72413;SDS011;60995;52.154;4.498;2023-06-14T06:39:38;8.57;;;3.05;;
72413;SDS011;60995;52.154;4.498;2023-06-14T06:41:55;9.00;;;3.22;;
72413;SDS011;60995;52.154;4.498;2023-06-14T06:44:11;10.45;;;2.78;;
72413;SDS011;60995;52.154;4.498;2023-06-14T06:46:28;8.20;;;3.00;;
72413;SDS011;60995;52.154;4.498;2023-06-14T06:48:44;8.25;;;3.05;;
72413;SDS011;60995;52.154;4.498;2023-06-14T06:51:00;7.20;;;2.67;;
72413;SDS011;60995;52.154;4.498;2023-06-14T06:53:17;14.00;;;3.05;;
72413;SDS011;60995;52.154;4.498;2023-06-14T06:55:34;8.27;;;2.55;;
72413;SDS011;60995;52.154;4.498;2023-06-14T06:57:50;5.95;;;2.55;;
72413;SDS011;60995;52.154;4.498;2023-06-14T07:00:08;7.72;;;3.13;;
72413;SDS011;60995;52.154;4.498;2023-06-14T07:02:25;9.95;;;3.20;;
72413;SDS011;60995;52.154;4.498;2023-06-14T07:04:41;14.57;;;2.90;;
72413;SDS011;60995;52.154;4.498;2023-06-14T07:06:58;6.80;;;2.63;;
72413;SDS011;60995;52.154;4.498;2023-06-14T07:09:14;7.15;;;3.13;;
72413;SDS011;60995;52.154;4.498;2023-06-14T07:11:31;7.82;;;3.10;;
72413;SDS011;60995;52.154;4.498;2023-06-14T07:13:48;7.45;;;3.03;;
72413;SDS011;60995;52.154;4.498;2023-06-14T07:16:04;8.73;;;3.33;;
72413;SDS011;60995;52.154;4.498;2023-06-14T07:18:21;6.90;;;2.63;;
72413;SDS011;60995;52.154;4.498;2023-06-14T07:20:38;7.60;;;2.90;;
72413;SDS011;60995;52.154;4.498;2023-06-14T07:22:54;9.65;;;2.85;;
72413;SDS011;60995;52.154;4.498;2023-06-14T07:25:11;10.05;;;3.00;;
72413;SDS011;60995;52.154;4.498;2023-06-14T07:27:31;10.30;;;2.80;;
72413;SDS011;60995;52.154;4.498;2023-06-14T07:29:47;11.00;;;3.10;;
72413;SDS011;60995;52.154;4.498;2023-06-14T07:32:04;9.80;;;2.90;;
72413;SDS011;60995;52.154;4.498;2023-06-14T07:34:21;11.45;;;2.45;;
72413;SDS011;60995;52.154;4.498;2023-06-14T07:36:37;5.45;;;2.60;;
72413;SDS011;60995;52.154;4.498;2023-06-14T07:38:54;11.88;;;3.20;;
72413;SDS011;60995;52.154;4.498;2023-06-14T07:41:10;8.75;;;3.33;;
72413;SDS011;60995;52.154;4.498;2023-06-14T07:43:27;9.00;;;3.17;;
72413;SDS011;60995;52.154;4.498;2023-06-14T07:45:43;10.00;;;3.03;;
72413;SDS011;60995;52.154;4.498;2023-06-14T07:48:00;14.23;;;2.95;;
72413;SDS011;60995;52.154;4.498;2023-06-14T07:50:16;8.00;;;2.55;;
72413;SDS011;60995;52.154;4.498;2023-06-14T07:52:32;8.15;;;2.80;;
72413;SDS011;60995;52.154;4.498;2023-06-14T07:54:49;8.85;;;3.00;;
72413;SDS011;60995;52.154;4.498;2023-06-14T07:57:05;8.65;;;2.85;;
72413;SDS011;60995;52.154;4.498;2023-06-14T07:59:22;10.15;;;2.72;;
72413;SDS011;60995;52.154;4.498;2023-06-14T08:01:38;9.30;;;3.00;;
72413;SDS011;60995;52.154;4.498;2023-06-14T08:03:55;10.05;;;3.42;;
72413;SDS011;60995;52.154;4.498;2023-06-14T08:06:11;10.13;;;3.30;;
72413;SDS011;60995;52.154;4.498;2023-06-14T08:08:28;6.35;;;2.90;;
72413;SDS011;60995;52.154;4.498;2023-06-14T08:10:44;8.05;;;2.63;;
72413;SDS011;60995;52.154;4.498;2023-06-14T08:13:00;8.30;;;2.90;;
72413;SDS011;60995;52.154;4.498;2023-06-14T08:15:17;8.38;;;2.72;;
72413;SDS011;60995;52.154;4.498;2023-06-14T08:17:33;7.80;;;3.08;;
72413;SDS011;60995;52.154;4.498;2023-06-14T08:19:50;10.02;;;3.00;;
72413;SDS011;60995;52.154;4.498;2023-06-14T08:22:06;12.82;;;3.53;;
72413;SDS011;60995;52.154;4.498;2023-06-14T08:24:23;8.30;;;2.72;;
72413;SDS011;60995;52.154;4.498;2023-06-14T08:26:40;11.55;;;3.00;;
72413;SDS011;60995;52.154;4.498;2023-06-14T08:28:57;8.15;;;3.30;;
72413;SDS011;60995;52.154;4.498;2023-06-14T08:31:13;10.70;;;3.00;;
72413;SDS011;60995;52.154;4.498;2023-06-14T08:33:30;8.27;;;2.80;;
72413;SDS011;60995;52.154;4.498;2023-06-14T08:35:48;8.63;;;3.00;;
72413;SDS011;60995;52.154;4.498;2023-06-14T08:38:05;8.57;;;2.60;;
72413;SDS011;60995;52.154;4.498;2023-06-14T08:40:22;6.55;;;2.88;;
72413;SDS011;60995;52.154;4.498;2023-06-14T08:42:39;12.57;;;3.15;;
72413;SDS011;60995;52.154;4.498;2023-06-14T08:44:57;9.70;;;2.90;;
72413;SDS011;60995;52.154;4.498;2023-06-14T08:47:13;10.98;;;3.10;;
72413;SDS011;60995;52.154;4.498;2023-06-14T08:49:33;6.85;;;2.83;;
72413;SDS011;60995;52.154;4.498;2023-06-14T08:51:58;5.63;;;2.88;;
72413;SDS011;60995;52.154;4.498;2023-06-14T08:54:16;10.18;;;2.95;;
72413;SDS011;60995;52.154;4.498;2023-06-14T08:56:37;9.10;;;3.00;;
72413;SDS011;60995;52.154;4.498;2023-06-14T08:58:56;12.65;;;3.38;;
72413;SDS011;60995;52.154;4.498;2023-06-14T09:01:18;6.93;;;2.75;;
72413;SDS011;60995;52.154;4.498;2023-06-14T09:03:37;9.18;;;2.72;;
72413;SDS011;60995;52.154;4.498;2023-06-14T09:05:56;7.55;;;2.75;;
72413;SDS011;60995;52.154;4.498;2023-06-14T09:08:14;7.75;;;3.17;;
72413;SDS011;60995;52.154;4.498;2023-06-14T09:10:32;10.35;;;2.70;;
72413;SDS011;60995;52.154;4.498;2023-06-14T09:12:53;8.77;;;2.80;;
72413;SDS011;60995;52.154;4.498;2023-06-14T09:15:09;8.52;;;2.70;;
72413;SDS011;60995;52.154;4.498;2023-06-14T09:17:26;5.93;;;2.58;;
72413;SDS011;60995;52.154;4.498;2023-06-14T09:19:42;6.57;;;2.40;;
72413;SDS011;60995;52.154;4.498;2023-06-14T09:22:04;6.60;;;2.83;;
72413;SDS011;60995;52.154;4.498;2023-06-14T09:24:21;9.45;;;2.95;;
72413;SDS011;60995;52.154;4.498;2023-06-14T09:26:41;10.05;;;3.63;;
72413;SDS011;60995;52.154;4.498;2023-06-14T09:28:58;8.43;;;2.72;;
72413;SDS011;60995;52.154;4.498;2023-06-14T09:31:15;11.82;;;3.33;;
72413;SDS011;60995;52.154;4.498;2023-06-14T09:33:33;8.43;;;2.67;;
72413;SDS011;60995;52.154;4.498;2023-06-14T09:35:56;6.35;;;2.53;;
72413;SDS011;60995;52.154;4.498;2023-06-14T09:38:12;6.07;;;2.17;;
72413;SDS011;60995;52.154;4.498;2023-06-14T09:40:29;11.05;;;2.30;;
72413;SDS011;60995;52.154;4.498;2023-06-14T09:42:51;6.97;;;2.22;;
72413;SDS011;60995;52.154;4.498;2023-06-14T09:45:09;12.00;;;2.60;;
72413;SDS011;60995;52.154;4.498;2023-06-14T09:47:27;10.38;;;2.72;;
72413;SDS011;60995;52.154;4.498;2023-06-14T09:49:43;6.65;;;2.28;;
72413;SDS011;60995;52.154;4.498;2023-06-14T09:52:00;5.20;;;2.20;;
72413;SDS011;60995;52.154;4.498;2023-06-14T09:54:20;8.43;;;2.10;;
72413;SDS011;60995;52.154;4.498;2023-06-14T09:56:46;7.95;;;2.08;;
72413;SDS011;60995;52.154;4.498;2023-06-14T09:59:05;8.57;;;2.28;;
72413;SDS011;60995;52.154;4.498;2023-06-14T10:01:25;6.78;;;2.30;;
72413;SDS011;60995;52.154;4.498;2023-06-14T10:03:46;7.47;;;2.42;;
72413;SDS011;60995;52.154;4.498;2023-06-14T10:06:10;9.57;;;2.10;;
72413;SDS011;60995;52.154;4.498;2023-06-14T10:08:28;5.63;;;1.92;;
72413;SDS011;60995;52.154;4.498;2023-06-14T10:10:49;7.00;;;2.10;;
72413;SDS011;60995;52.154;4.498;2023-06-14T10:13:06;7.72;;;2.42;;
72413;SDS011;60995;52.154;4.498;2023-06-14T10:15:27;6.20;;;2.15;;
72413;SDS011;60995;52.154;4.498;2023-06-14T10:18:18;7.15;;;1.92;;
72413;SDS011;60995;52.154;4.498;2023-06-14T10:23:18;4.60;;;1.88;;
72413;SDS011;60995;52.154;4.498;2023-06-14T10:25:39;6.80;;;1.92;;
72413;SDS011;60995;52.154;4.498;2023-06-14T10:30:36;6.85;;;1.70;;
72413;SDS011;60995;52.154;4.498;2023-06-14T10:33:05;5.45;;;2.00;;
72413;SDS011;60995;52.154;4.498;2023-06-14T10:35:23;5.75;;;1.70;;
72413;SDS011;60995;52.154;4.498;2023-06-14T10:37:39;4.20;;;2.03;;
72413;SDS011;60995;52.154;4.498;2023-06-14T10:39:56;11.35;;;2.00;;
72413;SDS011;60995;52.154;4.498;2023-06-14T10:42:13;7.50;;;1.80;;
72413;SDS011;60995;52.154;4.498;2023-06-14T10:44:31;4.50;;;2.00;;
72413;SDS011;60995;52.154;4.498;2023-06-14T10:46:53;6.00;;;2.20;;
72413;SDS011;60995;52.154;4.498;2023-06-14T10:49:11;6.15;;;2.08;;
72413;SDS011;60995;52.154;4.498;2023-06-14T10:51:41;4.03;;;1.80;;
72413;SDS011;60995;52.154;4.498;2023-06-14T10:54:05;2.92;;;1.80;;
72413;SDS011;60995;52.154;4.498;2023-06-14T10:56:32;7.00;;;1.75;;
72413;SDS011;60995;52.154;4.498;2023-06-14T10:58:48;3.67;;;1.65;;
72413;SDS011;60995;52.154;4.498;2023-06-14T11:01:05;11.43;;;2.10;;
72413;SDS011;60995;52.154;4.498;2023-06-14T11:04:06;3.67;;;1.60;;
72413;SDS011;60995;52.154;4.498;2023-06-14T11:06:13;5.10;;;1.77;;
72413;SDS011;60995;52.154;4.498;2023-06-14T11:08:46;3.70;;;1.70;;
72413;SDS011;60995;52.154;4.498;2023-06-14T11:11:34;5.35;;;1.80;;
72413;SDS011;60995;52.154;4.498;2023-06-14T11:13:54;4.72;;;1.88;;
72413;SDS011;60995;52.154;4.498;2023-06-14T11:16:14;4.80;;;1.70;;
72413;SDS011;60995;52.154;4.498;2023-06-14T11:18:34;9.63;;;1.63;;
72413;SDS011;60995;52.154;4.498;2023-06-14T11:20:53;4.80;;;1.60;;
72413;SDS011;60995;52.154;4.498;2023-06-14T11:23:09;3.67;;;1.70;;
72413;SDS011;60995;52.154;4.498;2023-06-14T11:25:29;3.90;;;1.45;;
72413;SDS011;60995;52.154;4.498;2023-06-14T11:27:46;5.80;;;1.73;;
72413;SDS011;60995;52.154;4.498;2023-06-14T11:30:07;3.58;;;1.50;;
72413;SDS011;60995;52.154;4.498;2023-06-14T11:32:24;6.18;;;1.60;;
72413;SDS011;60995;52.154;4.498;2023-06-14T11:34:41;4.88;;;1.60;;
72413;SDS011;60995;52.154;4.498;2023-06-14T11:36:57;5.63;;;1.80;;
72413;SDS011;60995;52.154;4.498;2023-06-14T11:39:16;2.75;;;1.45;;
72413;SDS011;60995;52.154;4.498;2023-06-14T11:41:34;6.38;;;1.70;;
72413;SDS011;60995;52.154;4.498;2023-06-14T11:43:54;6.63;;;1.53;;
72413;SDS011;60995;52.154;4.498;2023-06-14T11:46:14;3.53;;;1.45;;
72413;SDS011;60995;52.154;4.498;2023-06-14T11:48:38;3.33;;;1.60;;
72413;SDS011;60995;52.154;4.498;2023-06-14T11:50:59;3.77;;;1.80;;
72413;SDS011;60995;52.154;4.498;2023-06-14T11:53:16;3.33;;;1.65;;
72413;SDS011;60995;52.154;4.498;2023-06-14T11:55:38;3.78;;;1.65;;
72413;SDS011;60995;52.154;4.498;2023-06-14T11:57:56;5.20;;;1.60;;
72413;SDS011;60995;52.154;4.498;2023-06-14T12:00:12;4.15;;;1.50;;
72413;SDS011;60995;52.154;4.498;2023-06-14T12:02:31;6.15;;;1.65;;
72413;SDS011;60995;52.154;4.498;2023-06-14T12:04:47;4.65;;;1.48;;
72413;SDS011;60995;52.154;4.498;2023-06-14T12:07:11;3.90;;;1.60;;
72413;SDS011;60995;52.154;4.498;2023-06-14T12:09:30;5.43;;;1.52;;
72413;SDS011;60995;52.154;4.498;2023-06-14T12:11:47;4.10;;;1.48;;
72413;SDS011;60995;52.154;4.498;2023-06-14T12:14:04;4.35;;;1.40;;
72413;SDS011;60995;52.154;4.498;2023-06-14T12:16:21;5.03;;;1.42;;
72413;SDS011;60995;52.154;4.498;2023-06-14T12:18:46;4.22;;;1.60;;
72413;SDS011;60995;52.154;4.498;2023-06-14T12:21:06;7.72;;;1.80;;
72413;SDS011;60995;52.154;4.498;2023-06-14T12:23:24;5.03;;;1.63;;
72413;SDS011;60995;52.154;4.498;2023-06-14T12:25:42;3.40;;;1.60;;
72413;SDS011;60995;52.154;4.498;2023-06-14T12:28:09;4.35;;;1.40;;
72413;SDS011;60995;52.154;4.498;2023-06-14T12:30:26;4.05;;;1.70;;
72413;SDS011;60995;52.154;4.498;2023-06-14T12:32:42;3.45;;;1.23;;
72413;SDS011;60995;52.154;4.498;2023-06-14T12:34:59;4.53;;;1.70;;
72413;SDS011;60995;52.154;4.498;2023-06-14T12:37:16;3.83;;;1.60;;
72413;SDS011;60995;52.154;4.498;2023-06-14T12:39:32;6.93;;;1.80;;
72413;SDS011;60995;52.154;4.498;2023-06-14T12:41:49;4.72;;;1.60;;
72413;SDS011;60995;52.154;4.498;2023-06-14T12:44:05;5.80;;;1.70;;
72413;SDS011;60995;52.154;4.498;2023-06-14T12:46:21;4.75;;;1.50;;
72413;SDS011;60995;52.154;4.498;2023-06-14T12:48:38;4.00;;;1.70;;
72413;SDS011;60995;52.154;4.498;2023-06-14T12:50:54;3.58;;;1.60;;
72413;SDS011;60995;52.154;4.498;2023-06-14T12:53:10;6.43;;;1.60;;
72413;SDS011;60995;52.154;4.498;2023-06-14T12:55:27;3.35;;;1.65;;
72413;SDS011;60995;52.154;4.498;2023-06-14T12:57:43;3.97;;;1.35;;
72413;SDS011;60995;52.154;4.498;2023-06-14T12:59:59;4.63;;;1.65;;
72413;SDS011;60995;52.154;4.498;2023-06-14T13:02:17;5.53;;;1.40;;
72413;SDS011;60995;52.154;4.498;2023-06-14T13:04:37;3.95;;;1.60;;
72413;SDS011;60995;52.154;4.498;2023-06-14T13:06:54;5.32;;;1.42;;
72413;SDS011;60995;52.154;4.498;2023-06-14T13:09:10;5.35;;;1.65;;
72413;SDS011;60995;52.154;4.498;2023-06-14T13:11:26;5.35;;;1.42;;
72413;SDS011;60995;52.154;4.498;2023-06-14T13:13:43;4.60;;;1.77;;
72413;SDS011;60995;52.154;4.498;2023-06-14T13:15:59;5.13;;;1.50;;
72413;SDS011;60995;52.154;4.498;2023-06-14T13:18:16;6.13;;;1.77;;
72413;SDS011;60995;52.154;4.498;2023-06-14T13:20:32;3.72;;;1.50;;
72413;SDS011;60995;52.154;4.498;2023-06-14T13:22:49;4.65;;;1.65;;
72413;SDS011;60995;52.154;4.498;2023-06-14T13:25:05;5.25;;;1.50;;
72413;SDS011;60995;52.154;4.498;2023-06-14T13:27:22;4.07;;;1.50;;
72413;SDS011;60995;52.154;4.498;2023-06-14T13:29:40;2.05;;;1.20;;
72413;SDS011;60995;52.154;4.498;2023-06-14T13:31:56;6.35;;;1.50;;
72413;SDS011;60995;52.154;4.498;2023-06-14T13:34:12;6.93;;;1.27;;
72413;SDS011;60995;52.154;4.498;2023-06-14T13:36:29;6.30;;;1.58;;
72413;SDS011;60995;52.154;4.498;2023-06-14T13:38:45;4.88;;;1.60;;
72413;SDS011;60995;52.154;4.498;2023-06-14T13:41:02;5.38;;;1.80;;
72413;SDS011;60995;52.154;4.498;2023-06-14T13:43:18;4.95;;;1.60;;
72413;SDS011;60995;52.154;4.498;2023-06-14T13:45:34;5.40;;;1.50;;
72413;SDS011;60995;52.154;4.498;2023-06-14T13:47:51;6.03;;;1.55;;
72413;SDS011;60995;52.154;4.498;2023-06-14T13:50:07;7.95;;;1.50;;
72413;SDS011;60995;52.154;4.498;2023-06-14T13:52:24;9.48;;;1.58;;
72413;SDS011;60995;52.154;4.498;2023-06-14T13:54:41;7.28;;;1.50;;
72413;SDS011;60995;52.154;4.498;2023-06-14T13:56:58;3.50;;;1.40;;